Time;durP1;ratioP1;P1;durP2;ratioP2;P2;SDS_P1;SDS_P2;PMS_P1;PMS_P2;Temp;Humidity;BMP_temperature;BMP_pressure;BME280_temperature;BME280_humidity;BME280_pressure;Samples;Min_cycle;Max_cycle;Signal;HPM_P1;HPM_P2
2022/08/07 06:17:02;;;;;;;4.03;3.65;;;;;;;;;;6287473;22;20108;-85
2022/08/07 06:19:28;;;;;;;3.92;3.58;;;;;;;;;;6310467;22;20315;-89
2022/08/07 06:21:55;;;;;;;4.07;3.55;;;;;;;;;;6309465;22;19999;-89
2022/08/07 06:24:20;;;;;;;3.35;2.75;;;;;;;;;;6308109;22;20011;-90
2022/08/07 06:26:46;;;;;;;3.45;3.15;;;;;;;;;;6308332;22;20000;-89
2022/08/07 06:29:12;;;;;;;4.28;3.50;;;;;;;;;;6308219;22;20326;-89
2022/08/07 06:31:37;;;;;;;4.35;3.40;;;;;;;;;;6308320;22;20003;-89
2022/08/07 06:34:03;;;;;;;4.50;3.50;;;;;;;;;;6308239;22;20003;-89
2022/08/07 06:36:29;;;;;;;3.85;3.55;;;;;;;;;;6308065;22;20086;-89
2022/08/07 06:38:55;;;;;;;4.65;3.55;;;;;;;;;;6309959;22;20026;-90
2022/08/07 06:41:25;;;;;;;4.22;3.72;;;;;;;;;;6308054;22;20003;-90
2022/08/07 06:43:52;;;;;;;5.72;3.90;;;;;;;;;;6309481;22;19999;-89
2022/08/07 06:46:18;;;;;;;5.60;4.05;;;;;;;;;;6309795;22;19996;-89
2022/08/07 06:48:43;;;;;;;5.07;3.70;;;;;;;;;;6309812;22;20010;-90
2022/08/07 06:51:14;;;;;;;3.80;3.50;;;;;;;;;;6309273;22;20003;-90
2022/08/07 06:53:40;;;;;;;3.92;3.58;;;;;;;;;;6309698;22;20001;-89
2022/08/07 06:56:07;;;;;;;4.28;3.97;;;;;;;;;;6309275;22;20428;-89
2022/08/07 06:58:36;;;;;;;4.05;3.75;;;;;;;;;;6309158;22;19999;-88
2022/08/07 07:01:04;;;;;;;3.97;3.65;;;;;;;;;;6309084;22;19999;-88
2022/08/07 07:03:31;;;;;;;4.22;3.92;;;;;;;;;;6308962;22;20005;-89
2022/08/07 07:05:56;;;;;;;4.65;4.13;;;;;;;;;;6307555;22;20003;-88
2022/08/07 07:08:29;;;;;;;5.10;4.18;;;;;;;;;;6309168;22;19996;-88
2022/08/07 07:10:55;;;;;;;4.57;4.28;;;;;;;;;;6307574;22;20352;-88
2022/08/07 07:13:43;;;;;;;5.70;4.18;;;;;;;;;;6309263;22;20005;-89
2022/08/07 07:16:15;;;;;;;4.40;4.10;;;;;;;;;;6309100;22;20015;-88
2022/08/07 07:18:48;;;;;;;4.40;4.00;;;;;;;;;;6307564;22;20422;-89
2022/08/07 07:21:22;;;;;;;4.63;4.22;;;;;;;;;;6309135;22;20003;-89
2022/08/07 07:23:48;;;;;;;4.70;4.30;;;;;;;;;;6309186;22;19999;-91
2022/08/07 07:26:18;;;;;;;4.30;3.85;;;;;;;;;;6308848;22;20018;-91
2022/08/07 07:28:50;;;;;;;3.83;3.53;;;;;;;;;;6308958;22;20326;-91
2022/08/07 07:31:41;;;;;;;4.00;3.70;;;;;;;;;;6307380;22;20007;-91
2022/08/07 07:34:11;;;;;;;5.40;4.90;;;;;;;;;;6298650;22;20007;-91
2022/08/07 07:36:38;;;;;;;5.25;4.75;;;;;;;;;;6308965;22;20082;-92
2022/08/07 07:39:05;;;;;;;4.05;3.75;;;;;;;;;;6309384;22;20355;-91
2022/08/07 07:41:32;;;;;;;4.22;3.80;;;;;;;;;;6309002;22;20441;-93
2022/08/07 07:44:00;;;;;;;4.05;3.50;;;;;;;;;;6309506;22;20030;-92
2022/08/07 07:46:29;;;;;;;5.07;3.78;;;;;;;;;;6307833;22;20003;-90
2022/08/07 07:48:57;;;;;;;4.45;4.05;;;;;;;;;;6309251;22;20389;-93
2022/08/07 07:51:23;;;;;;;13.13;4.38;;;;;;;;;;6307565;22;19999;-92
2022/08/07 07:53:50;;;;;;;4.35;4.05;;;;;;;;;;6307180;22;20007;-92
2022/08/07 07:56:17;;;;;;;4.20;3.90;;;;;;;;;;6309155;22;19999;-92
2022/08/07 07:58:43;;;;;;;4.40;4.00;;;;;;;;;;6308119;22;20045;-91
2022/08/07 08:01:10;;;;;;;4.88;4.40;;;;;;;;;;6309333;22;20010;-93
2022/08/07 08:03:39;;;;;;;4.00;3.70;;;;;;;;;;6309145;22;19995;-91
2022/08/07 08:06:06;;;;;;;4.55;4.20;;;;;;;;;;6308970;22;20072;-91
2022/08/07 08:08:34;;;;;;;5.43;4.93;;;;;;;;;;6307423;22;20033;-90
2022/08/07 08:11:00;;;;;;;4.93;4.53;;;;;;;;;;6307384;22;19999;-90
2022/08/07 08:13:27;;;;;;;4.47;4.18;;;;;;;;;;6307089;22;20330;-91
2022/08/07 08:15:53;;;;;;;4.60;4.05;;;;;;;;;;6308751;22;20015;-90
2022/08/07 08:18:23;;;;;;;4.40;3.92;;;;;;;;;;6308357;22;19999;-90
2022/08/07 08:20:48;;;;;;;;;;;;;;;;;;6309128;22;20000;-89
2022/08/07 08:28:50;;;;;;;5.25;4.40;;;;;;;;;;6308646;22;20333;-90
2022/08/07 08:31:24;;;;;;;4.60;4.20;;;;;;;;;;6307431;22;20011;-90
2022/08/07 08:33:55;;;;;;;4.75;4.35;;;;;;;;;;6307447;22;20011;-89
2022/08/07 08:36:25;;;;;;;4.68;4.20;;;;;;;;;;6307916;22;20422;-84
2022/08/07 08:38:52;;;;;;;4.90;4.50;;;;;;;;;;6308428;22;20004;-90
2022/08/07 08:41:39;;;;;;;5.03;4.63;;;;;;;;;;6307562;22;20028;-90
2022/08/07 08:44:07;;;;;;;4.95;4.55;;;;;;;;;;6309953;22;19999;-87
2022/08/07 08:46:47;;;;;;;4.88;4.38;;;;;;;;;;6311759;22;19999;-94
2022/08/07 08:49:26;;;;;;;6.82;4.32;;;;;;;;;;6310266;22;20010;-96
2022/08/07 08:51:52;;;;;;;;;;;;;;;;;;6316218;22;20007;-95
2022/08/07 08:54:27;;;;;;;4.80;4.40;;;;;;;;;;6312033;22;19979;-94
2022/08/07 08:56:56;;;;;;;6.70;6.10;;;;;;;;;;6316129;22;19999;-94
2022/08/07 08:59:49;;;;;;;4.65;4.25;;;;;;;;;;6307965;22;20003;-85
2022/08/07 09:02:23;;;;;;;5.30;4.90;;;;;;;;;;6308380;22;20003;-87
2022/08/07 09:04:58;;;;;;;4.78;4.38;;;;;;;;;;6307059;22;20418;-91
2022/08/07 09:07:45;;;;;;;4.93;4.53;;;;;;;;;;6306973;22;20445;-88
2022/08/07 09:10:39;;;;;;;5.63;5.15;;;;;;;;;;6309379;22;20003;-87
2022/08/07 09:13:36;;;;;;;4.63;4.32;;;;;;;;;;6311068;22;20003;-89
2022/08/07 09:16:38;;;;;;;4.53;4.15;;;;;;;;;;6308518;22;20338;-89
2022/08/07 09:19:22;;;;;;;93.85;40.75;;;;;;;;;;6309882;22;20031;-84
2022/08/07 09:21:48;;;;;;;58.58;28.00;;;;;;;;;;6309940;22;20035;-85
2022/08/07 09:24:43;;;;;;;17.40;10.90;;;;;;;;;;6309559;22;20007;-85
2022/08/07 09:27:18;;;;;;;6.45;5.75;;;;;;;;;;6309928;22;20003;-86
2022/08/07 09:29:51;;;;;;;5.38;4.72;;;;;;;;;;6309672;22;20517;-85
2022/08/07 09:32:54;;;;;;;4.43;4.07;;;;;;;;;;6308396;22;20007;-85
2022/08/07 09:35:38;;;;;;;4.97;4.57;;;;;;;;;;6307943;22;20049;-88
2022/08/07 09:38:06;;;;;;;5.43;4.90;;;;;;;;;;6308534;22;20003;-86
2022/08/07 09:40:41;;;;;;;5.20;4.80;;;;;;;;;;6309656;22;20010;-87
2022/08/07 09:43:48;;;;;;;4.55;4.15;;;;;;;;;;6310228;22;20418;-86
2022/08/07 09:46:23;;;;;;;5.60;5.10;;;;;;;;;;6308319;22;20010;-90
2022/08/07 09:49:27;;;;;;;5.15;4.68;;;;;;;;;;6309860;22;19999;-88
2022/08/07 09:52:01;;;;;;;4.57;4.28;;;;;;;;;;6309980;22;20422;-86
2022/08/07 09:54:45;;;;;;;4.50;4.20;;;;;;;;;;6308353;22;20003;-89
2022/08/07 09:57:48;;;;;;;5.25;4.80;;;;;;;;;;6309704;22;20011;-87
2022/08/07 10:00:19;;;;;;;4.40;4.00;;;;;;;;;;6214975;23;20063;-87
2022/08/07 10:02:56;;;;;;;5.10;4.63;;;;;;;;;;6295266;22;20121;-90
2022/08/07 10:05:25;;;;;;;4.20;3.90;;;;;;;;;;6309440;22;20026;-87
2022/08/07 10:08:21;;;;;;;5.43;4.43;;;;;;;;;;6307746;22;20029;-85
2022/08/07 10:11:19;;;;;;;5.22;4.78;;;;;;;;;;6309041;22;20010;-84
2022/08/07 10:14:12;;;;;;;6.15;4.78;;;;;;;;;;6309822;22;20019;-87
2022/08/07 10:17:06;;;;;;;5.25;4.75;;;;;;;;;;6309307;22;20034;-89
2022/08/07 10:19:45;;;;;;;4.85;4.32;;;;;;;;;;6267002;22;20069;-88
2022/08/07 10:22:35;;;;;;;4.68;4.28;;;;;;;;;;6309951;22;20044;-88
2022/08/07 10:25:03;;;;;;;4.20;3.90;;;;;;;;;;6309141;22;20006;-87
2022/08/07 10:28:09;;;;;;;3.70;3.40;;;;;;;;;;6309125;22;20034;-87
2022/08/07 10:30:53;;;;;;;5.63;4.68;;;;;;;;;;6309463;22;20303;-89
2022/08/07 10:33:37;;;;;;;4.80;4.18;;;;;;;;;;6309260;22;19995;-86
2022/08/07 10:36:33;;;;;;;4.72;4.32;;;;;;;;;;6307525;22;20013;-88
2022/08/07 10:39:27;;;;;;;4.28;3.80;;;;;;;;;;6309273;22;20000;-89
2022/08/07 10:42:02;;;;;;;4.57;4.28;;;;;;;;;;6275454;22;20029;-89
2022/08/07 10:45:03;;;;;;;4.30;3.97;;;;;;;;;;6308851;22;20007;-87
2022/08/07 10:47:39;;;;;;;4.40;4.00;;;;;;;;;;6277043;22;20038;-88
2022/08/07 10:50:29;;;;;;;6.28;4.43;;;;;;;;;;6308954;22;20011;-88
2022/08/07 10:53:18;;;;;;;4.40;4.00;;;;;;;;;;6297987;22;20063;-87
2022/08/07 10:55:50;;;;;;;8.35;7.55;;;;;;;;;;6265100;22;20445;-87
2022/08/07 10:58:34;;;;;;;4.60;4.30;;;;;;;;;;6308861;22;20053;-87
2022/08/07 11:01:09;;;;;;;5.00;4.65;;;;;;;;;;6307369;22;20446;-87
2022/08/07 11:03:44;;;;;;;5.00;4.68;;;;;;;;;;6306947;22;20017;-87
2022/08/07 11:06:20;;;;;;;5.28;4.88;;;;;;;;;;6308861;22;19999;-86
2022/08/07 11:09:19;;;;;;;5.00;4.60;;;;;;;;;;6308838;22;20013;-87
2022/08/07 11:12:00;;;;;;;5.18;4.68;;;;;;;;;;6299525;22;20018;-87
2022/08/07 11:14:38;;;;;;;4.60;4.03;;;;;;;;;;6308812;22;20003;-87
2022/08/07 11:17:14;;;;;;;4.90;4.05;;;;;;;;;;6307282;22;20434;-87
2022/08/07 11:19:58;;;;;;;4.88;4.35;;;;;;;;;;6309790;22;20086;-84
2022/08/07 11:22:29;;;;;;;4.53;4.22;;;;;;;;;;6308799;22;20082;-86
2022/08/07 11:25:07;;;;;;;4.28;3.97;;;;;;;;;;6335740;22;20010;-86
2022/08/07 11:27:59;;;;;;;4.72;4.25;;;;;;;;;;6308443;22;20082;-83
2022/08/07 11:30:51;;;;;;;4.05;3.72;;;;;;;;;;6309835;22;20082;-84
2022/08/07 11:33:27;;;;;;;4.35;3.97;;;;;;;;;;6308530;22;20427;-84
2022/08/07 11:36:01;;;;;;;4.35;3.97;;;;;;;;;;6307150;22;20027;-85
2022/08/07 11:38:51;;;;;;;4.40;4.10;;;;;;;;;;6308483;22;20003;-84
2022/08/07 11:41:22;;;;;;;4.45;4.13;;;;;;;;;;6306047;22;20088;-89
2022/08/07 11:43:50;;;;;;;4.75;4.45;;;;;;;;;;6309066;22;20003;-89
2022/08/07 11:46:22;;;;;;;4.67;4.30;;;;;;;;;;6306867;22;20060;-89
2022/08/07 11:49:19;;;;;;;4.82;4.32;;;;;;;;;;6308299;22;20062;-89
2022/08/07 11:52:04;;;;;;;4.57;4.18;;;;;;;;;;6307839;22;20010;-89
2022/08/07 11:54:41;;;;;;;4.65;4.25;;;;;;;;;;6308015;22;20007;-89
2022/08/07 11:57:31;;;;;;;4.53;4.13;;;;;;;;;;6308325;22;20003;-89
2022/08/07 12:00:06;;;;;;;4.10;3.80;;;;;;;;;;6308513;22;20078;-90
2022/08/07 12:03:04;;;;;;;4.65;4.25;;;;;;;;;;6308230;22;20091;-88
2022/08/07 12:05:38;;;;;;;4.80;4.40;;;;;;;;;;6268493;22;20094;-90
2022/08/07 12:08:25;;;;;;;4.63;4.25;;;;;;;;;;6308158;22;20003;-89
2022/08/07 12:10:58;;;;;;;4.30;3.92;;;;;;;;;;6306679;22;20030;-90
2022/08/07 12:13:28;;;;;;;5.00;4.60;;;;;;;;;;6308490;22;20034;-90
2022/08/07 12:16:01;;;;;;;6.78;6.18;;;;;;;;;;6306833;22;20027;-91
2022/08/07 12:18:40;;;;;;;6.53;5.93;;;;;;;;;;6308155;22;19999;-89
2022/08/07 12:21:28;;;;;;;4.25;3.95;;;;;;;;;;6308871;22;20030;-91
2022/08/07 12:24:14;;;;;;;3.42;3.22;;;;;;;;;;6310467;22;20326;-89
2022/08/07 12:27:08;;;;;;;3.15;2.95;;;;;;;;;;6308921;22;20422;-90
2022/08/07 12:29:56;;;;;;;3.90;3.60;;;;;;;;;;6305281;22;20003;-88
2022/08/07 18:03:27;;;;;;;2.65;2.45;;;;;;;;;;6327913;22;20019;-84
2022/08/07 18:06:02;;;;;;;2.38;2.17;;;;;;;;;;6309435;22;20007;-89
2022/08/07 18:08:47;;;;;;;5.90;2.30;;;;;;;;;;6309404;22;20441;-82
2022/08/07 18:11:32;;;;;;;2.60;2.28;;;;;;;;;;6278302;22;20003;-83
2022/08/07 18:14:25;;;;;;;3.28;2.13;;;;;;;;;;6278344;22;20472;-80
2022/08/07 18:17:04;;;;;;;3.67;2.53;;;;;;;;;;6278678;22;20007;-88
2022/08/07 18:19:44;;;;;;;2.75;2.55;;;;;;;;;;6278709;22;20011;-80
2022/08/07 18:22:23;;;;;;;2.38;2.17;;;;;;;;;;6278386;22;20454;-84
2022/08/07 18:25:04;;;;;;;5.35;2.97;;;;;;;;;;6278508;22;20000;-84
2022/08/07 18:28:05;;;;;;;2.35;2.20;;;;;;;;;;6278443;22;20077;-86
2022/08/07 18:31:19;;;;;;;1.80;1.70;;;;;;;;;;6276505;22;20007;-86
2022/08/07 18:34:03;;;;;;;2.88;2.05;;;;;;;;;;6196148;22;20060;-85
2022/08/07 18:36:40;;;;;;;2.70;2.50;;;;;;;;;;6278264;22;20073;-85
2022/08/07 18:39:10;;;;;;;2.70;2.50;;;;;;;;;;6277809;22;20028;-84
2022/08/07 18:42:04;;;;;;;3.20;3.00;;;;;;;;;;6277814;22;20442;-86
2022/08/07 18:44:48;;;;;;;5.15;3.83;;;;;;;;;;6280032;22;20007;-84
2022/08/07 18:47:34;;;;;;;2.58;2.38;;;;;;;;;;6278938;22;19996;-87
2022/08/07 18:50:21;;;;;;;3.40;2.30;;;;;;;;;;6276776;22;20010;-88
2022/08/07 18:53:27;;;;;;;2.60;2.40;;;;;;;;;;6277037;22;20437;-87
2022/08/07 18:56:30;;;;;;;2.65;2.45;;;;;;;;;;6278268;22;20415;-87
2022/08/07 18:59:13;;;;;;;3.10;2.85;;;;;;;;;;6278402;22;20445;-87
2022/08/07 19:01:56;;;;;;;3.33;3.03;;;;;;;;;;6278735;22;20007;-88
2022/08/07 19:05:06;;;;;;;3.20;2.90;;;;;;;;;;6278544;22;20308;-88
2022/08/07 19:07:44;;;;;;;2.55;2.35;;;;;;;;;;6253332;22;20008;-87
2022/08/07 19:10:20;;;;;;;2.40;2.15;;;;;;;;;;6276824;22;20007;-90
2022/08/07 19:13:30;;;;;;;2.55;2.35;;;;;;;;;;6276877;22;20015;-89
2022/08/07 19:16:31;;;;;;;3.22;2.40;;;;;;;;;;6215486;23;20015;-89
2022/08/07 19:19:23;;;;;;;2.88;2.58;;;;;;;;;;6132659;23;20014;-89
2022/08/07 19:22:22;;;;;;;2.67;2.47;;;;;;;;;;6211932;23;20012;-86
2022/08/07 19:25:00;;;;;;;3.08;2.78;;;;;;;;;;6228553;23;20007;-87
2022/08/07 19:27:35;;;;;;;4.25;2.40;;;;;;;;;;6229808;23;20015;-87
2022/08/07 19:30:14;;;;;;;4.68;2.42;;;;;;;;;;6228124;23;20004;-87
2022/08/07 19:32:50;;;;;;;2.78;2.42;;;;;;;;;;6229611;23;20012;-87
2022/08/07 19:35:33;;;;;;;3.10;2.45;;;;;;;;;;6203904;23;20009;-87
2022/08/07 19:38:09;;;;;;;2.90;2.30;;;;;;;;;;6205026;23;20031;-87
2022/08/07 19:40:42;;;;;;;4.35;2.50;;;;;;;;;;6210120;23;19992;-87
2022/08/07 19:46:02;;;;;;;2.30;2.10;;;;;;;;;;6360634;22;20035;-87
2022/08/07 19:51:20;;;;;;;2.10;2.00;;;;;;;;;;6356752;22;20053;-88
2022/08/07 19:54:14;;;;;;;2.67;2.25;;;;;;;;;;6364542;22;20074;-87
2022/08/07 19:56:50;;;;;;;5.10;2.30;;;;;;;;;;6362775;22;19999;-87
2022/08/07 19:59:30;;;;;;;2.20;2.08;;;;;;;;;;6363103;22;20006;-88
2022/08/07 20:05:02;;;;;;;3.17;2.10;;;;;;;;;;6347479;22;20023;-85
2022/08/07 20:07:30;;;;;;;3.38;2.00;;;;;;;;;;6312233;22;20011;-86
2022/08/07 20:09:58;;;;;;;1.92;1.83;;;;;;;;;;6339880;22;20424;-89
2022/08/07 20:12:25;;;;;;;2.55;1.88;;;;;;;;;;6339641;22;20007;-87
2022/08/07 20:15:36;;;;;;;1.88;1.77;;;;;;;;;;6356629;22;20003;-94
2022/08/07 20:18:07;;;;;;;2.70;1.90;;;;;;;;;;6349175;22;20018;-95
2022/08/07 20:20:34;;;;;;;3.67;2.05;;;;;;;;;;6319009;22;20011;-95
2022/08/07 20:23:02;;;;;;;4.57;2.00;;;;;;;;;;6343888;22;20079;-95
2022/08/07 20:25:30;;;;;;;1.97;1.87;;;;;;;;;;6351961;22;20003;-92
2022/08/07 20:28:04;;;;;;;2.83;2.10;;;;;;;;;;6350970;22;20212;-93
2022/08/07 20:30:31;;;;;;;2.15;2.00;;;;;;;;;;6341747;22;20227;-95
2022/08/07 20:32:59;;;;;;;1.85;1.75;;;;;;;;;;6314828;22;20009;-92
2022/08/07 20:35:35;;;;;;;2.80;1.98;;;;;;;;;;6297065;22;20015;-95
2022/08/07 20:38:05;;;;;;;3.90;1.50;;;;;;;;;;6331183;22;19999;-90
2022/08/07 20:40:57;;;;;;;2.45;2.05;;;;;;;;;;6354116;22;20018;-87
2022/08/07 20:43:50;;;;;;;1.90;1.80;;;;;;;;;;6358192;22;20323;-90
2022/08/07 20:46:36;;;;;;;3.08;2.00;;;;;;;;;;6360095;22;20010;-90
2022/08/07 20:49:30;;;;;;;2.05;1.92;;;;;;;;;;6331873;22;20070;-87
2022/08/07 20:52:05;;;;;;;2.53;1.70;;;;;;;;;;6362046;22;20049;-89
2022/08/07 20:54:33;;;;;;;3.80;2.08;;;;;;;;;;6329404;22;20019;-86
2022/08/07 20:57:47;;;;;;;4.22;2.00;;;;;;;;;;6337552;22;20018;-89
2022/08/07 21:00:26;;;;;;;3.10;2.05;;;;;;;;;;6326096;22;20007;-87
2022/08/07 21:03:20;;;;;;;2.08;1.67;;;;;;;;;;6327967;22;20007;-89
2022/08/07 21:05:50;;;;;;;1.92;1.83;;;;;;;;;;6329867;22;20003;-92
2022/08/07 21:08:43;;;;;;;3.55;2.08;;;;;;;;;;6330686;22;19999;-91
2022/08/07 21:11:35;;;;;;;6.25;2.30;;;;;;;;;;6347067;22;20023;-94
2022/08/07 21:14:15;;;;;;;2.15;1.92;;;;;;;;;;6331535;22;20044;-93
2022/08/07 21:17:00;;;;;;;2.35;1.90;;;;;;;;;;6317178;22;20010;-96
2022/08/07 21:19:27;;;;;;;1.67;1.58;;;;;;;;;;6343333;22;19999;-90
2022/08/07 21:21:54;;;;;;;2.17;1.90;;;;;;;;;;6344058;22;20444;-94
2022/08/07 21:24:47;;;;;;;2.47;1.70;;;;;;;;;;6346357;22;20026;-87
2022/08/07 21:27:39;;;;;;;1.95;1.85;;;;;;;;;;6353952;22;20002;-87
2022/08/07 21:30:11;;;;;;;3.40;2.10;;;;;;;;;;6356515;22;19998;-92
2022/08/07 21:33:09;;;;;;;3.70;1.92;;;;;;;;;;6315742;22;20426;-91
2022/08/07 21:35:57;;;;;;;2.40;2.20;;;;;;;;;;6316635;22;20013;-94
2022/08/07 21:38:29;;;;;;;2.30;2.08;;;;;;;;;;6326716;22;20075;-91
2022/08/07 21:41:08;;;;;;;2.30;1.73;;;;;;;;;;6344444;22;20032;-87
2022/08/07 21:43:42;;;;;;;2.20;2.00;;;;;;;;;;6342569;22;20055;-93
2022/08/07 21:46:21;;;;;;;2.97;2.25;;;;;;;;;;6351137;22;20070;-88
2022/08/07 21:49:28;;;;;;;2.37;2.00;;;;;;;;;;6318411;22;20002;-87
2022/08/07 21:52:09;;;;;;;3.22;2.45;;;;;;;;;;6346131;22;20065;-85
2022/08/07 21:55:16;;;;;;;2.75;2.35;;;;;;;;;;6341721;22;20457;-85
